createdAt,value
2018-02-09T00:00:14.873Z,24.10
2018-02-09T00:02:43.054Z,28.45
2018-02-09T00:05:11.205Z,28.52
2018-02-09T00:07:39.342Z,26.58
2018-02-09T00:10:07.510Z,29.70
2018-02-09T00:12:35.638Z,29.50
2018-02-09T00:15:03.807Z,32.55
2018-02-09T00:17:31.948Z,27.58
2018-02-09T00:20:00.106Z,30.25
2018-02-09T00:22:39.957Z,28.15
2018-02-09T00:25:08.115Z,29.35
2018-02-09T00:27:36.249Z,30.10
2018-02-09T00:30:04.413Z,26.73
2018-02-09T00:32:32.554Z,32.63
2018-02-09T00:35:00.711Z,31.35
2018-02-09T00:37:28.846Z,30.10
2018-02-09T00:39:57.005Z,29.50
2018-02-09T00:42:25.150Z,28.27
2018-02-09T00:44:53.326Z,29.12
2018-02-09T00:47:21.467Z,30.92
2018-02-09T00:49:49.629Z,26.73
2018-02-09T00:52:18.537Z,24.60
2018-02-09T00:54:46.702Z,25.60
2018-02-09T00:57:15.602Z,28.35
2018-02-09T00:59:43.771Z,24.20
2018-02-09T01:02:12.667Z,26.37
2018-02-09T01:04:40.824Z,27.17
2018-02-09T01:07:09.733Z,27.37
2018-02-09T01:09:37.899Z,26.33
2018-02-09T01:12:06.817Z,25.70
2018-02-09T01:14:34.980Z,24.55
2018-02-09T01:17:03.112Z,29.37
2018-02-09T01:19:31.269Z,28.30
2018-02-09T01:21:59.410Z,27.30
2018-02-09T01:24:27.573Z,30.90
2018-02-09T01:26:55.704Z,28.33
2018-02-09T01:29:23.874Z,29.20
2018-02-09T01:31:52.010Z,29.45
2018-02-09T01:34:20.165Z,27.83
2018-02-09T01:36:48.305Z,30.12
2018-02-09T01:39:16.468Z,25.98
2018-02-09T01:41:44.608Z,29.25
2018-02-09T01:44:12.767Z,28.12
2018-02-09T01:46:40.906Z,25.92
2018-02-09T01:49:09.065Z,25.70
2018-02-09T01:51:37.205Z,25.98
2018-02-09T01:54:05.366Z,25.02
2018-02-09T01:56:33.509Z,25.58
2018-02-09T01:59:01.687Z,24.20
2018-02-09T02:01:29.829Z,27.27
2018-02-09T02:03:57.992Z,26.42
2018-02-09T02:06:26.133Z,24.33
2018-02-09T02:08:54.294Z,25.20
2018-02-09T02:11:22.428Z,27.02
2018-02-09T02:13:50.584Z,24.63
2018-02-09T02:16:18.721Z,24.25
2018-02-09T02:18:46.885Z,27.20
2018-02-09T02:21:15.025Z,24.63
2018-02-09T02:23:43.189Z,25.75
2018-02-09T02:26:11.324Z,27.30
2018-02-09T02:28:39.489Z,23.00
2018-02-09T02:31:07.616Z,24.70
2018-02-09T02:33:35.790Z,21.83
2018-02-09T03:58:01.522Z,19.35
2018-02-09T04:00:29.700Z,22.48
2018-02-09T04:02:57.843Z,22.35
2018-02-09T04:05:26.011Z,22.60
2018-02-09T04:07:54.147Z,24.08
2018-02-09T04:10:22.317Z,24.70
2018-02-09T04:12:50.457Z,22.13
2018-02-09T04:15:18.621Z,26.45
2018-02-09T04:17:46.745Z,26.02
2018-02-09T04:20:14.908Z,24.90
2018-02-09T04:22:43.053Z,26.73
2018-02-09T04:25:11.218Z,22.00
2018-02-09T04:27:39.352Z,26.98
2018-02-09T04:30:07.504Z,23.52
2018-02-09T04:32:35.641Z,22.37
2018-02-09T04:35:03.807Z,23.73
2018-02-09T04:37:31.940Z,26.70
2018-02-09T04:40:00.105Z,23.60
2018-02-09T04:42:28.232Z,24.63
2018-02-09T04:44:56.397Z,24.48
2018-02-09T04:47:24.541Z,22.67
2018-02-09T04:49:52.706Z,20.73
2018-02-09T04:52:20.837Z,23.17
2018-02-09T04:54:49.009Z,20.83
2018-02-09T04:57:17.141Z,21.20
2018-02-09T04:59:45.318Z,22.62
2018-02-09T05:02:13.448Z,22.33
2018-02-09T05:04:41.614Z,21.65
2018-02-09T05:07:09.754Z,23.83
2018-02-09T05:09:37.914Z,24.23
2018-02-09T05:12:06.054Z,24.15
2018-02-09T05:17:08.522Z,22.48
2018-02-09T05:19:36.680Z,26.23
2018-02-09T05:22:04.825Z,24.27
2018-02-09T05:24:33.745Z,26.20
2018-02-09T05:27:01.895Z,28.45
2018-02-09T05:29:30.061Z,24.95
2018-02-09T05:31:58.202Z,27.17
2018-02-09T05:34:26.376Z,25.00
2018-02-09T05:36:54.513Z,23.33
2018-02-09T05:39:22.641Z,23.42
2018-02-09T05:41:50.820Z,26.42
2018-02-09T05:44:18.972Z,29.27
2018-02-09T05:46:47.132Z,25.12
2018-02-09T05:49:15.270Z,28.83
2018-02-09T05:51:43.433Z,23.75
2018-02-09T05:54:11.573Z,25.62
2018-02-09T05:56:39.733Z,25.80
2018-02-09T05:59:07.878Z,25.23
2018-02-09T06:01:36.036Z,25.55
2018-02-09T06:04:04.171Z,28.08
2018-02-09T06:06:32.330Z,26.60
2018-02-09T06:09:00.465Z,24.80
2018-02-09T06:11:28.628Z,27.02
2018-02-09T06:13:56.759Z,27.15
2018-02-09T06:16:24.922Z,27.23
2018-02-09T06:18:53.063Z,27.55
2018-02-09T06:21:21.226Z,29.63
2018-02-09T06:23:49.361Z,28.77
2018-02-09T06:26:17.543Z,28.48
2018-02-09T06:28:45.680Z,29.17
2018-02-09T06:31:13.844Z,29.20
2018-02-09T06:33:41.981Z,30.30
2018-02-09T06:36:10.144Z,27.00
2018-02-09T06:38:38.277Z,27.58
2018-02-09T06:41:06.491Z,27.40
2018-02-09T06:43:34.605Z,26.35
2018-02-09T06:46:02.774Z,25.65
2018-02-09T06:48:30.914Z,28.90
2018-02-09T06:50:59.073Z,37.83
2018-02-09T06:53:28.033Z,28.45
2018-02-09T06:55:56.157Z,27.98
2018-02-09T06:58:24.292Z,29.05
2018-02-09T07:00:52.511Z,29.75
2018-02-09T07:03:20.642Z,30.12
2018-02-09T07:05:48.800Z,30.75
2018-02-09T07:08:16.936Z,31.90
2018-02-09T07:10:45.101Z,28.90
2018-02-09T07:13:13.243Z,31.87
2018-02-09T07:15:42.230Z,27.17
2018-02-09T07:18:10.356Z,31.27
2018-02-09T07:20:38.532Z,31.00
2018-02-09T07:23:06.672Z,31.12
2018-02-09T07:25:34.832Z,32.63
2018-02-09T07:28:02.973Z,29.50
2018-02-09T07:30:31.138Z,30.50
2018-02-09T07:32:59.269Z,37.05
2018-02-09T07:35:27.433Z,40.80
2018-02-09T07:37:56.336Z,42.40
2018-02-09T07:40:24.497Z,38.10
2018-02-09T07:42:53.403Z,36.88
2018-02-09T07:45:22.330Z,38.13
2018-02-09T07:47:50.485Z,35.90
2018-02-09T07:50:18.663Z,35.08
2018-02-09T07:52:46.801Z,37.78
2018-02-09T07:55:14.957Z,30.48
2018-02-09T07:57:43.092Z,36.17
2018-02-09T08:00:11.254Z,36.72
2018-02-09T08:02:39.409Z,34.03
2018-02-09T08:05:07.548Z,36.08
2018-02-09T08:07:36.104Z,38.17
2018-02-09T08:10:04.257Z,41.92
2018-02-09T08:12:32.417Z,36.67
2018-02-09T08:15:00.558Z,35.47
2018-02-09T08:17:28.721Z,37.35
2018-02-09T08:19:56.856Z,35.88
2018-02-09T08:22:25.021Z,35.42
2018-02-09T08:24:53.162Z,38.33
2018-02-09T08:27:22.096Z,39.92
2018-02-09T08:29:50.228Z,40.12
2018-02-09T08:32:19.165Z,38.22
2018-02-09T08:34:47.297Z,38.40
2018-02-09T08:37:16.227Z,39.08
2018-02-09T08:39:44.368Z,36.47
2018-02-09T08:42:13.292Z,39.15
2018-02-09T08:44:41.425Z,40.28
2018-02-09T08:47:10.349Z,42.58
2018-02-09T08:49:38.498Z,38.97
2018-02-09T08:52:07.425Z,38.90
2018-02-09T08:54:35.561Z,40.80
2018-02-09T08:57:04.480Z,41.70
2018-02-09T08:59:32.651Z,42.75
2018-02-09T09:02:00.816Z,37.78
2018-02-09T09:04:28.950Z,40.85
2018-02-09T09:06:57.110Z,42.78
2018-02-09T09:09:25.247Z,41.47
2018-02-09T09:11:53.405Z,43.63
2018-02-09T09:14:21.541Z,43.00
2018-02-09T09:16:49.701Z,42.58
2018-02-09T09:19:17.832Z,40.17
2018-02-09T09:21:45.990Z,43.55
2018-02-09T09:24:14.116Z,43.65
2018-02-09T09:26:42.279Z,47.75
2018-02-09T09:29:10.416Z,48.70
2018-02-09T09:31:38.577Z,45.53
2018-02-09T09:34:06.716Z,46.45
2018-02-09T09:36:34.886Z,45.70
2018-02-09T09:39:03.008Z,47.95
2018-02-09T09:41:31.180Z,44.75
2018-02-09T09:43:59.301Z,44.22
2018-02-09T09:46:27.458Z,44.55
2018-02-09T09:48:55.594Z,47.08
2018-02-09T09:51:24.508Z,48.30
2018-02-09T09:53:52.642Z,48.70
2018-02-09T09:56:20.794Z,46.67
2018-02-09T09:58:48.932Z,45.08
2018-02-09T10:01:22.764Z,40.92
2018-02-09T10:03:50.902Z,46.67
2018-02-09T10:06:19.069Z,44.72
2018-02-09T10:08:47.192Z,46.67
2018-02-09T10:11:15.352Z,46.28
2018-02-09T10:13:43.495Z,44.40
2018-02-09T10:16:11.644Z,44.10
2018-02-09T10:18:39.777Z,46.17
2018-02-09T10:21:07.933Z,45.88
2018-02-09T10:23:36.062Z,48.67
2018-02-09T10:26:04.245Z,48.17
2018-02-09T10:28:32.383Z,49.40
2018-02-09T10:31:00.508Z,48.35
2018-02-09T10:33:28.661Z,48.22
2018-02-09T10:35:56.805Z,47.70
2018-02-09T10:38:24.966Z,47.30
2018-02-09T10:40:53.093Z,50.58
2018-02-09T10:43:22.013Z,47.03
2018-02-09T10:45:50.142Z,45.75
2018-02-09T10:48:19.056Z,48.03
2018-02-09T10:50:47.184Z,48.35
2018-02-09T10:53:15.354Z,50.05
2018-02-09T10:55:43.481Z,47.78
2018-02-09T10:58:11.645Z,45.83
2018-02-09T11:00:45.325Z,44.15
2018-02-09T11:03:13.531Z,47.72
2018-02-09T11:05:41.669Z,46.33
2018-02-09T11:08:09.825Z,47.00
2018-02-09T11:10:43.628Z,47.38
2018-02-09T11:13:15.621Z,42.65
2018-02-09T11:15:43.812Z,44.97
2018-02-09T11:18:11.961Z,42.08
2018-02-09T11:20:40.128Z,42.78
2018-02-09T11:23:08.291Z,44.50
2018-02-09T11:25:36.478Z,48.13
2018-02-09T11:28:04.648Z,43.87
2018-02-09T11:30:32.851Z,50.17
2018-02-09T11:33:01.030Z,48.08
2018-02-09T11:35:29.160Z,45.88
2018-02-09T11:37:57.322Z,43.13
2018-02-09T11:40:25.452Z,47.47
2018-02-09T11:42:53.616Z,49.10
2018-02-09T11:45:22.507Z,40.33
2018-02-09T11:47:50.669Z,45.03
2018-02-09T11:50:19.569Z,46.28
2018-02-09T11:52:47.725Z,42.30
2018-02-09T11:55:15.848Z,46.25
2018-02-09T11:57:44.051Z,43.87
2018-02-09T12:00:12.217Z,41.42
2018-02-09T12:02:40.376Z,42.67
2018-02-09T12:05:08.516Z,45.00
2018-02-09T12:07:36.693Z,42.08
2018-02-09T12:10:04.825Z,45.33
2018-02-09T12:12:32.977Z,37.03
2018-02-09T12:15:01.118Z,46.47
2018-02-09T12:17:29.278Z,41.30
2018-02-09T12:19:57.425Z,45.45
2018-02-09T12:22:25.587Z,44.03
2018-02-09T12:24:53.722Z,51.70
2018-02-09T12:27:21.874Z,46.72
2018-02-09T12:29:50.000Z,40.12
2018-02-09T12:32:18.167Z,44.58
2018-02-09T12:34:46.302Z,44.25
2018-02-09T12:37:14.472Z,47.05
2018-02-09T12:39:42.609Z,47.70
2018-02-09T12:42:10.747Z,41.60
2018-02-09T12:44:38.912Z,38.38
2018-02-09T12:47:07.060Z,31.92
2018-02-09T12:49:35.209Z,39.50
2018-02-09T12:52:03.348Z,44.22
2018-02-09T12:54:31.505Z,41.33
2018-02-09T12:56:59.632Z,42.55
2018-02-09T12:59:27.793Z,46.95
2018-02-09T13:01:55.929Z,32.25
2018-02-09T13:04:24.087Z,38.85
2018-02-09T13:06:52.250Z,40.17
2018-02-09T13:09:20.410Z,44.30
2018-02-09T13:11:49.300Z,45.50
2018-02-09T13:17:21.844Z,42.13
2018-02-09T13:19:50.005Z,45.53
2018-02-09T13:22:29.845Z,46.08
2018-02-09T13:24:58.046Z,42.47
2018-02-09T13:27:26.201Z,37.65
2018-02-09T13:29:54.361Z,40.38
2018-02-09T13:32:34.181Z,46.15
2018-02-09T13:35:02.344Z,41.88
2018-02-09T13:37:33.268Z,41.47
2018-02-09T13:40:01.416Z,42.38
2018-02-09T13:42:30.313Z,41.58
2018-02-09T13:44:58.473Z,43.63
2018-02-09T13:47:26.605Z,43.20
2018-02-09T13:49:55.536Z,37.67
2018-02-09T13:52:23.661Z,37.55
2018-02-09T13:54:51.817Z,39.67
2018-02-09T13:57:19.945Z,42.10
2018-02-09T13:59:48.102Z,41.10
2018-02-09T14:02:16.233Z,43.55
2018-02-09T14:04:44.393Z,38.88
2018-02-09T14:07:12.521Z,42.40
2018-02-09T14:09:40.681Z,40.80
2018-02-09T14:12:08.809Z,37.50
2018-02-09T14:14:36.966Z,43.08
2018-02-09T14:17:05.099Z,37.50
2018-02-09T14:19:33.253Z,32.13
2018-02-09T14:22:01.381Z,38.00
2018-02-09T14:24:29.540Z,30.35
2018-02-09T14:26:58.437Z,40.08
2018-02-09T14:29:26.661Z,37.97
2018-02-09T14:31:54.777Z,34.15
2018-02-09T14:34:22.929Z,35.60
2018-02-09T14:36:51.062Z,39.40
2018-02-09T14:39:19.225Z,37.10
2018-02-09T14:41:47.353Z,23.45
2018-02-09T14:44:15.512Z,41.20
2018-02-09T14:46:43.655Z,39.25
2018-02-09T14:49:11.808Z,40.08
2018-02-09T14:51:39.952Z,38.42
2018-02-09T14:54:08.120Z,34.10
2018-02-09T14:56:36.249Z,37.95
2018-02-09T14:59:04.400Z,41.05
2018-02-09T15:01:32.563Z,42.60
2018-02-09T15:04:00.697Z,39.92
2018-02-09T15:06:28.844Z,44.20
2018-02-09T15:08:56.982Z,41.42
2018-02-09T15:11:25.201Z,40.92
2018-02-09T15:13:53.864Z,38.38
2018-02-09T15:16:22.030Z,39.75
2018-02-09T15:18:50.166Z,37.88
2018-02-09T15:21:18.317Z,36.05
2018-02-09T15:23:46.461Z,41.55
2018-02-09T15:26:14.614Z,37.60
2018-02-09T15:28:42.765Z,42.85
2018-02-09T15:31:11.693Z,42.35
2018-02-09T15:33:39.836Z,41.70
2018-02-09T15:36:08.758Z,37.97
2018-02-09T15:38:36.885Z,41.50
2018-02-09T15:41:05.049Z,40.08
2018-02-09T15:43:33.176Z,47.03
2018-02-09T15:46:01.346Z,46.35
2018-02-09T15:48:29.476Z,46.10
2018-02-09T15:50:57.632Z,49.72
2018-02-09T15:53:25.761Z,43.15
2018-02-09T15:55:53.925Z,44.28
2018-02-09T15:58:22.054Z,41.75
2018-02-09T16:00:50.216Z,43.22
2018-02-09T16:03:18.349Z,42.70
2018-02-09T16:05:46.516Z,44.55
2018-02-09T16:08:14.655Z,40.12
2018-02-09T16:10:42.818Z,40.97
2018-02-09T16:13:10.953Z,41.70
2018-02-09T16:15:39.116Z,40.45
2018-02-09T16:18:07.257Z,42.85
2018-02-09T16:20:35.419Z,42.97
2018-02-09T16:23:03.552Z,45.38
2018-02-09T16:25:31.721Z,47.55
2018-02-09T16:27:59.861Z,48.13
2018-02-09T16:30:28.801Z,54.58
2018-02-09T16:32:56.937Z,52.50
2018-02-09T16:35:25.866Z,52.22
2018-02-09T16:37:54.005Z,51.30
2018-02-09T16:40:22.924Z,50.95
2018-02-09T16:42:51.058Z,48.72
2018-02-09T16:45:20.035Z,48.25
2018-02-09T16:47:48.173Z,51.58
2018-02-09T16:50:16.361Z,50.95
2018-02-09T16:52:44.505Z,53.30
2018-02-09T16:55:12.680Z,55.20
2018-02-09T16:57:40.819Z,51.42
2018-02-09T17:00:08.977Z,54.35
2018-02-09T17:02:37.128Z,51.40
2018-02-09T17:05:05.302Z,47.70
2018-02-09T17:07:33.459Z,54.10
2018-02-09T17:10:01.666Z,56.33
2018-02-09T17:12:29.800Z,56.10
2018-02-09T17:14:57.986Z,58.63
2018-02-09T17:17:26.141Z,55.00
2018-02-09T17:19:54.305Z,58.70
2018-02-09T17:22:22.517Z,55.83
2018-02-09T17:24:50.661Z,53.75
2018-02-09T17:27:18.858Z,57.47
2018-02-09T17:29:47.053Z,52.90
2018-02-09T17:32:15.224Z,54.85
2018-02-09T17:34:43.370Z,58.45
2018-02-09T17:37:11.654Z,52.03
2018-02-09T17:39:39.801Z,55.40
2018-02-09T17:42:07.963Z,53.95
2018-02-09T17:44:36.105Z,54.33
2018-02-09T17:47:04.415Z,54.88
2018-02-09T17:49:32.591Z,55.85
2018-02-09T17:52:01.067Z,59.03
2018-02-09T17:54:29.509Z,57.38
2018-02-09T17:56:57.981Z,62.60
2018-02-09T17:59:26.580Z,58.05
2018-02-09T18:01:55.323Z,58.08
2018-02-09T18:04:23.494Z,57.45
2018-02-09T18:06:51.633Z,58.55
2018-02-09T18:09:19.792Z,57.28
2018-02-09T18:11:48.084Z,58.87
2018-02-09T18:14:17.023Z,54.75
2018-02-09T18:16:45.178Z,54.28
2018-02-09T18:19:13.340Z,56.97
2018-02-09T18:21:41.548Z,53.70
2018-02-09T18:24:09.980Z,58.13
2018-02-09T18:26:39.002Z,55.78
2018-02-09T18:29:07.451Z,61.80
2018-02-09T18:31:35.613Z,55.83
2018-02-09T18:34:03.912Z,59.45
2018-02-09T18:36:32.076Z,58.80
2018-02-09T18:39:00.266Z,59.33
2018-02-09T18:41:29.319Z,57.17
2018-02-09T18:43:57.498Z,55.00
2018-02-09T18:46:25.638Z,54.90
2018-02-09T18:48:53.878Z,61.33
2018-02-09T18:51:22.096Z,60.35
2018-02-09T18:53:50.325Z,66.47
2018-02-09T18:56:18.469Z,60.15
2018-02-09T18:58:46.649Z,62.35
2018-02-09T19:01:14.812Z,57.95
2018-02-09T19:03:43.072Z,60.28
2018-02-09T19:06:11.269Z,57.95
2018-02-09T19:08:39.504Z,61.67
2018-02-09T19:11:07.861Z,59.55
2018-02-09T19:13:36.146Z,65.25
2018-02-09T19:16:04.302Z,69.10
2018-02-09T19:18:32.457Z,70.65
2018-02-09T19:21:00.783Z,65.00
2018-02-09T19:23:28.952Z,65.53
2018-02-09T19:25:57.116Z,66.37
2018-02-09T19:28:25.256Z,65.55
2018-02-09T19:30:53.424Z,68.70
2018-02-09T19:33:21.575Z,70.22
2018-02-09T19:35:49.750Z,67.72
2018-02-09T19:38:17.884Z,62.60
2018-02-09T19:40:46.050Z,59.65
2018-02-09T19:43:14.222Z,60.70
2018-02-09T19:45:42.385Z,62.92
2018-02-09T19:48:10.557Z,60.35
2018-02-09T19:50:39.500Z,61.05
2018-02-09T19:53:07.633Z,60.30
2018-02-09T19:55:36.634Z,61.45
2018-02-09T19:58:04.778Z,64.30
2018-02-09T20:00:32.955Z,63.95
2018-02-09T20:03:01.093Z,59.55
2018-02-09T20:05:29.272Z,61.60
2018-02-09T20:07:57.409Z,60.20
2018-02-09T20:10:25.570Z,62.00
2018-02-09T20:12:53.700Z,57.58
2018-02-09T20:15:21.866Z,66.15
2018-02-09T20:17:50.006Z,59.50
2018-02-09T20:20:18.150Z,66.22
2018-02-09T20:22:46.334Z,63.75
2018-02-09T20:25:15.247Z,60.60
2018-02-09T20:27:43.410Z,63.45
2018-02-09T20:30:11.563Z,65.80
2018-02-09T20:32:39.716Z,56.40
2018-02-09T20:35:07.857Z,60.05
2018-02-09T20:37:36.084Z,65.05
2018-02-09T20:40:04.221Z,64.25
2018-02-09T20:42:32.440Z,64.25
2018-02-09T20:45:00.564Z,64.47
2018-02-09T20:47:28.728Z,62.70
2018-02-09T20:49:56.864Z,66.65
2018-02-09T20:52:25.021Z,63.60
2018-02-09T20:54:53.962Z,65.25
2018-02-09T20:57:22.112Z,62.33
2018-02-09T20:59:50.252Z,67.50
2018-02-09T21:02:18.411Z,64.90
2018-02-09T21:04:46.553Z,65.12
2018-02-09T21:07:14.720Z,64.30
2018-02-09T21:09:42.866Z,62.50
2018-02-09T21:12:11.087Z,61.13
2018-02-09T21:14:39.217Z,62.90
2018-02-09T21:17:08.151Z,60.03
2018-02-09T21:19:36.286Z,63.10
2018-02-09T21:22:04.465Z,65.25
2018-02-09T21:24:32.600Z,66.35
2018-02-09T21:27:00.773Z,63.50
2018-02-09T21:29:28.920Z,63.22
2018-02-09T21:31:57.093Z,63.30
2018-02-09T21:34:25.241Z,64.68
2018-02-09T21:36:53.410Z,62.22
2018-02-09T21:39:21.544Z,68.07
2018-02-09T21:41:49.712Z,64.12
2018-02-09T21:44:17.847Z,64.10
2018-02-09T21:46:46.016Z,64.10
2018-02-09T21:49:14.371Z,60.35
2018-02-09T21:51:43.305Z,64.35
2018-02-09T21:54:11.454Z,64.62
2018-02-09T21:56:39.624Z,62.75
2018-02-09T21:59:07.771Z,65.20
2018-02-09T22:01:35.956Z,66.30
2018-02-09T22:04:04.102Z,61.75
2018-02-09T22:06:32.271Z,59.83
2018-02-09T22:09:00.403Z,59.20
2018-02-09T22:11:28.568Z,63.58
2018-02-09T22:13:56.712Z,66.07
2018-02-09T22:16:24.877Z,63.67
2018-02-09T22:18:53.013Z,62.75
2018-02-09T22:21:21.152Z,64.50
2018-02-09T22:23:49.316Z,62.35
2018-02-09T22:26:17.461Z,68.05
2018-02-09T22:28:45.629Z,64.43
2018-02-09T22:31:13.766Z,65.00
2018-02-09T22:33:41.921Z,62.90
2018-02-09T22:36:10.070Z,64.72
2018-02-09T22:38:38.228Z,59.65
2018-02-09T22:41:06.364Z,57.90
2018-02-09T22:43:34.533Z,59.53
2018-02-09T22:46:02.677Z,59.80
2018-02-09T22:48:30.842Z,59.83
2018-02-09T22:50:59.736Z,63.03
2018-02-09T22:53:27.928Z,62.65
2018-02-09T22:55:56.066Z,65.40
2018-02-09T22:58:24.230Z,60.67
2018-02-09T23:00:52.371Z,64.87
2018-02-09T23:03:20.533Z,64.15
2018-02-09T23:05:48.669Z,65.18
2018-02-09T23:08:16.846Z,68.72
2018-02-09T23:10:45.001Z,65.25
2018-02-09T23:13:13.172Z,68.35
2018-02-09T23:15:41.305Z,63.87
2018-02-09T23:18:09.483Z,65.12
2018-02-09T23:20:37.626Z,61.13
2018-02-09T23:23:06.557Z,63.85
2018-02-09T23:25:34.707Z,64.20
2018-02-09T23:28:02.864Z,62.33
2018-02-09T23:30:31.001Z,65.10
2018-02-09T23:32:59.170Z,59.85
2018-02-09T23:35:27.312Z,65.47
2018-02-09T23:37:55.480Z,59.55
2018-02-09T23:40:23.622Z,59.70
2018-02-09T23:42:51.789Z,64.80
2018-02-09T23:45:20.709Z,65.75
2018-02-09T23:47:48.876Z,61.10
2018-02-09T23:50:17.777Z,58.78
2018-02-09T23:52:45.940Z,60.28
2018-02-09T23:55:14.086Z,67.68
2018-02-09T23:57:42.282Z,63.63
